sensor_id;sensor_type;location;lat;lon;timestamp;pressure;altitude;pressure_sealevel;temperature;humidity
64644;BME280;51056;50.330;7.914;2022-11-23T00:00:19;99070.28;;;7.97;83.77
64644;BME280;51056;50.330;7.914;2022-11-23T00:03:24;99065.91;;;7.97;83.41
64644;BME280;51056;50.330;7.914;2022-11-23T00:06:27;99062.41;;;7.84;84.80
64644;BME280;51056;50.330;7.914;2022-11-23T00:09:32;99069.09;;;7.88;84.60
64644;BME280;51056;50.330;7.914;2022-11-23T00:12:35;99070.66;;;7.90;84.23
64644;BME280;51056;50.330;7.914;2022-11-23T00:15:39;99067.16;;;7.91;83.02
64644;BME280;51056;50.330;7.914;2022-11-23T00:18:45;99067.66;;;7.97;82.90
64644;BME280;51056;50.330;7.914;2022-11-23T00:21:49;99066.47;;;7.88;83.39
64644;BME280;51056;50.330;7.914;2022-11-23T00:24:52;99070.66;;;7.90;82.30
64644;BME280;51056;50.330;7.914;2022-11-23T00:27:55;99073.19;;;7.92;83.39
64644;BME280;51056;50.330;7.914;2022-11-23T00:31:00;99071.84;;;7.99;81.59
64644;BME280;51056;50.330;7.914;2022-11-23T00:34:04;99077.22;;;8.10;80.88
64644;BME280;51056;50.330;7.914;2022-11-23T00:37:07;99079.81;;;8.10;82.64
64644;BME280;51056;50.330;7.914;2022-11-23T00:40:11;99084.47;;;8.05;83.06
64644;BME280;51056;50.330;7.914;2022-11-23T00:43:15;99081.47;;;8.11;82.51
64644;BME280;51056;50.330;7.914;2022-11-23T00:46:24;99082.28;;;8.12;82.42
64644;BME280;51056;50.330;7.914;2022-11-23T00:49:28;99088.94;;;8.03;82.24
64644;BME280;51056;50.330;7.914;2022-11-23T00:52:31;99085.72;;;8.12;82.93
64644;BME280;51056;50.330;7.914;2022-11-23T00:55:35;99084.50;;;8.18;82.72
64644;BME280;51056;50.330;7.914;2022-11-23T00:58:41;99083.72;;;8.03;83.00
64644;BME280;51056;50.330;7.914;2022-11-23T01:01:45;99087.63;;;8.10;82.28
64644;BME280;51056;50.330;7.914;2022-11-23T01:04:51;99086.97;;;8.07;82.18
64644;BME280;51056;50.330;7.914;2022-11-23T01:07:54;99098.44;;;8.04;83.92
64644;BME280;51056;50.330;7.914;2022-11-23T01:11:03;99093.41;;;8.01;83.48
64644;BME280;51056;50.330;7.914;2022-11-23T01:14:11;99090.63;;;8.04;82.49
64644;BME280;51056;50.330;7.914;2022-11-23T01:17:16;99094.13;;;8.03;81.96
64644;BME280;51056;50.330;7.914;2022-11-23T01:20:20;99099.16;;;8.06;82.53
64644;BME280;51056;50.330;7.914;2022-11-23T01:23:23;99101.47;;;8.11;83.25
64644;BME280;51056;50.330;7.914;2022-11-23T01:26:27;99097.91;;;8.12;82.22
64644;BME280;51056;50.330;7.914;2022-11-23T01:29:34;99111.06;;;8.10;83.08
64644;BME280;51056;50.330;7.914;2022-11-23T01:32:37;99112.72;;;8.11;83.38
64644;BME280;51056;50.330;7.914;2022-11-23T01:35:40;99119.97;;;8.06;83.11
64644;BME280;51056;50.330;7.914;2022-11-23T01:38:44;99115.50;;;8.08;82.05
64644;BME280;51056;50.330;7.914;2022-11-23T01:41:48;99117.53;;;8.18;83.50
64644;BME280;51056;50.330;7.914;2022-11-23T01:45:32;99124.75;;;8.27;82.70
64644;BME280;51056;50.330;7.914;2022-11-23T01:48:44;99109.91;;;8.14;82.21
64644;BME280;51056;50.330;7.914;2022-11-23T01:51:51;99119.25;;;8.04;82.04
64644;BME280;51056;50.330;7.914;2022-11-23T01:54:57;99133.53;;;8.11;82.18
64644;BME280;51056;50.330;7.914;2022-11-23T01:58:02;99125.72;;;8.11;82.80
64644;BME280;51056;50.330;7.914;2022-11-23T02:01:07;99122.94;;;8.14;83.34
64644;BME280;51056;50.330;7.914;2022-11-23T02:04:26;99121.84;;;8.04;82.37
64644;BME280;51056;50.330;7.914;2022-11-23T02:07:31;99124.47;;;8.04;83.08
64644;BME280;51056;50.330;7.914;2022-11-23T02:10:35;99134.94;;;8.03;82.62
64644;BME280;51056;50.330;7.914;2022-11-23T02:13:39;99116.25;;;8.10;83.28
64644;BME280;51056;50.330;7.914;2022-11-23T02:16:44;99132.78;;;8.09;84.20
64644;BME280;51056;50.330;7.914;2022-11-23T02:20:21;99128.66;;;8.20;83.78
64644;BME280;51056;50.330;7.914;2022-11-23T02:23:34;99131.56;;;8.15;83.62
64644;BME280;51056;50.330;7.914;2022-11-23T02:26:39;99125.91;;;8.08;84.12
64644;BME280;51056;50.330;7.914;2022-11-23T02:29:46;99128.81;;;8.04;84.40
64644;BME280;51056;50.330;7.914;2022-11-23T02:32:49;99128.78;;;8.18;84.09
64644;BME280;51056;50.330;7.914;2022-11-23T02:35:56;99124.69;;;8.14;84.14
64644;BME280;51056;50.330;7.914;2022-11-23T02:39:07;99129.91;;;8.14;83.87
64644;BME280;51056;50.330;7.914;2022-11-23T02:42:11;99123.13;;;8.11;84.19
64644;BME280;51056;50.330;7.914;2022-11-23T02:45:20;99120.66;;;7.96;85.53
64644;BME280;51056;50.330;7.914;2022-11-23T02:48:27;99120.59;;;8.10;86.01
64644;BME280;51056;50.330;7.914;2022-11-23T02:51:31;99123.50;;;8.05;85.84
64644;BME280;51056;50.330;7.914;2022-11-23T02:54:34;99128.91;;;8.02;85.59
64644;BME280;51056;50.330;7.914;2022-11-23T02:57:37;99121.47;;;8.10;86.22
64644;BME280;51056;50.330;7.914;2022-11-23T03:00:41;99117.38;;;8.06;84.97
64644;BME280;51056;50.330;7.914;2022-11-23T03:03:44;99124.09;;;7.96;86.34
64644;BME280;51056;50.330;7.914;2022-11-23T03:06:47;99130.06;;;7.98;86.92
64644;BME280;51056;50.330;7.914;2022-11-23T03:09:51;99127.97;;;8.03;86.71
64644;BME280;51056;50.330;7.914;2022-11-23T03:12:56;99128.41;;;8.10;86.62
64644;BME280;51056;50.330;7.914;2022-11-23T03:15:59;99140.47;;;7.98;86.70
64644;BME280;51056;50.330;7.914;2022-11-23T03:19:02;99127.59;;;8.09;86.43
64644;BME280;51056;50.330;7.914;2022-11-23T03:22:07;99131.13;;;8.08;86.32
64644;BME280;51056;50.330;7.914;2022-11-23T03:25:10;99133.75;;;7.94;87.24
64644;BME280;51056;50.330;7.914;2022-11-23T03:28:15;99139.16;;;7.91;87.69
64644;BME280;51056;50.330;7.914;2022-11-23T03:31:19;99136.09;;;7.99;87.53
64644;BME280;51056;50.330;7.914;2022-11-23T03:34:31;99139.56;;;7.85;88.26
64644;BME280;51056;50.330;7.914;2022-11-23T03:37:34;99135.78;;;7.76;88.69
64644;BME280;51056;50.330;7.914;2022-11-23T03:40:38;99145.69;;;7.84;88.73
64644;BME280;51056;50.330;7.914;2022-11-23T03:43:51;99139.91;;;7.93;88.77
64644;BME280;51056;50.330;7.914;2022-11-23T03:46:54;99145.91;;;8.08;88.10
64644;BME280;51056;50.330;7.914;2022-11-23T03:49:58;99146.13;;;7.90;88.63
64644;BME280;51056;50.330;7.914;2022-11-23T03:53:01;99149.53;;;8.05;88.31
64644;BME280;51056;50.330;7.914;2022-11-23T03:56:05;99134.31;;;7.99;88.56
64644;BME280;51056;50.330;7.914;2022-11-23T03:59:12;99138.78;;;7.97;88.36
64644;BME280;51056;50.330;7.914;2022-11-23T04:02:15;99139.28;;;7.89;89.10
64644;BME280;51056;50.330;7.914;2022-11-23T04:05:26;99141.97;;;7.88;89.58
64644;BME280;51056;50.330;7.914;2022-11-23T04:08:56;99141.03;;;7.89;89.68
64644;BME280;51056;50.330;7.914;2022-11-23T04:12:15;99138.66;;;7.72;90.49
64644;BME280;51056;50.330;7.914;2022-11-23T04:15:19;99134.75;;;7.79;90.29
64644;BME280;51056;50.330;7.914;2022-11-23T04:18:22;99134.66;;;7.80;90.45
64644;BME280;51056;50.330;7.914;2022-11-23T04:21:26;99139.47;;;7.72;90.67
64644;BME280;51056;50.330;7.914;2022-11-23T04:24:29;99140.50;;;7.84;90.18
64644;BME280;51056;50.330;7.914;2022-11-23T04:27:35;99128.16;;;7.73;90.63
64644;BME280;51056;50.330;7.914;2022-11-23T04:30:39;99139.34;;;7.61;91.46
64644;BME280;51056;50.330;7.914;2022-11-23T04:33:43;99135.66;;;7.78;90.75
64644;BME280;51056;50.330;7.914;2022-11-23T04:36:49;99135.13;;;7.73;90.92
64644;BME280;51056;50.330;7.914;2022-11-23T04:39:55;99139.03;;;7.80;90.64
64644;BME280;51056;50.330;7.914;2022-11-23T04:43:12;99134.75;;;7.79;90.45
64644;BME280;51056;50.330;7.914;2022-11-23T04:46:17;99144.22;;;7.65;90.48
64644;BME280;51056;50.330;7.914;2022-11-23T04:49:24;99139.84;;;7.80;89.93
64644;BME280;51056;50.330;7.914;2022-11-23T04:52:30;99147.22;;;7.74;89.87
64644;BME280;51056;50.330;7.914;2022-11-23T04:55:35;99144.69;;;7.72;90.03
64644;BME280;51056;50.330;7.914;2022-11-23T04:58:39;99150.75;;;7.73;89.90
64644;BME280;51056;50.330;7.914;2022-11-23T05:01:42;99158.38;;;7.61;87.66
64644;BME280;51056;50.330;7.914;2022-11-23T05:05:04;99156.41;;;7.65;88.97
64644;BME280;51056;50.330;7.914;2022-11-23T05:08:09;99156.34;;;7.66;88.89
64644;BME280;51056;50.330;7.914;2022-11-23T05:11:33;99155.00;;;7.74;88.72
64644;BME280;51056;50.330;7.914;2022-11-23T05:14:37;99155.75;;;7.76;88.36
64644;BME280;51056;50.330;7.914;2022-11-23T05:17:41;99145.63;;;7.85;87.85
64644;BME280;51056;50.330;7.914;2022-11-23T05:20:51;99153.25;;;7.74;87.99
64644;BME280;51056;50.330;7.914;2022-11-23T05:23:54;99152.59;;;7.71;88.48
64644;BME280;51056;50.330;7.914;2022-11-23T05:26:57;99150.19;;;7.82;87.47
64644;BME280;51056;50.330;7.914;2022-11-23T05:30:01;99157.03;;;7.83;87.58
64644;BME280;51056;50.330;7.914;2022-11-23T05:33:12;99158.91;;;7.81;87.94
64644;BME280;51056;50.330;7.914;2022-11-23T05:36:16;99147.84;;;7.77;87.91
64644;BME280;51056;50.330;7.914;2022-11-23T05:39:19;99161.88;;;7.75;87.79
64644;BME280;51056;50.330;7.914;2022-11-23T05:42:29;99156.59;;;7.76;87.88
64644;BME280;51056;50.330;7.914;2022-11-23T05:45:39;99160.78;;;7.64;88.86
64644;BME280;51056;50.330;7.914;2022-11-23T05:48:43;99160.78;;;7.79;88.14
64644;BME280;51056;50.330;7.914;2022-11-23T05:51:47;99162.00;;;7.73;88.45
64644;BME280;51056;50.330;7.914;2022-11-23T05:54:50;99154.06;;;7.75;88.37
64644;BME280;51056;50.330;7.914;2022-11-23T05:57:53;99160.03;;;7.77;88.17
64644;BME280;51056;50.330;7.914;2022-11-23T06:00:59;99164.50;;;7.60;89.13
64644;BME280;51056;50.330;7.914;2022-11-23T06:04:06;99166.81;;;7.65;88.88
64644;BME280;51056;50.330;7.914;2022-11-23T06:07:15;99155.75;;;7.76;88.21
64644;BME280;51056;50.330;7.914;2022-11-23T06:10:41;99157.16;;;7.67;88.54
64644;BME280;51056;50.330;7.914;2022-11-23T06:13:45;99156.16;;;7.69;88.46
64644;BME280;51056;50.330;7.914;2022-11-23T06:17:14;99171.00;;;7.67;88.23
64644;BME280;51056;50.330;7.914;2022-11-23T06:21:33;99167.00;;;7.62;88.61
64644;BME280;51056;50.330;7.914;2022-11-23T06:24:37;99151.66;;;7.72;88.45
64644;BME280;51056;50.330;7.914;2022-11-23T06:28:10;99163.66;;;7.74;88.25
64644;BME280;51056;50.330;7.914;2022-11-23T06:31:19;99164.66;;;7.72;88.80
64644;BME280;51056;50.330;7.914;2022-11-23T06:34:23;99162.09;;;7.57;89.05
64644;BME280;51056;50.330;7.914;2022-11-23T06:37:27;99149.63;;;7.62;88.94
64644;BME280;51056;50.330;7.914;2022-11-23T06:40:32;99158.94;;;7.66;88.67
64644;BME280;51056;50.330;7.914;2022-11-23T06:43:35;99172.03;;;7.65;88.13
64644;BME280;51056;50.330;7.914;2022-11-23T06:46:39;99168.97;;;7.73;88.25
64644;BME280;51056;50.330;7.914;2022-11-23T06:49:42;99179.63;;;7.68;88.21
64644;BME280;51056;50.330;7.914;2022-11-23T06:53:01;99187.94;;;7.60;88.47
64644;BME280;51056;50.330;7.914;2022-11-23T06:56:18;99192.56;;;7.69;88.36
64644;BME280;51056;50.330;7.914;2022-11-23T06:59:22;99189.97;;;7.69;88.39
64644;BME280;51056;50.330;7.914;2022-11-23T07:02:25;99190.69;;;7.72;88.94
64644;BME280;51056;50.330;7.914;2022-11-23T07:05:31;99191.75;;;7.69;89.21
64644;BME280;51056;50.330;7.914;2022-11-23T07:08:35;99192.31;;;7.60;89.17
64644;BME280;51056;50.330;7.914;2022-11-23T07:11:55;99198.34;;;7.60;89.28
64644;BME280;51056;50.330;7.914;2022-11-23T07:14:58;99195.06;;;7.71;88.69
64644;BME280;51056;50.330;7.914;2022-11-23T07:18:02;99199.81;;;7.64;88.78
64644;BME280;51056;50.330;7.914;2022-11-23T07:21:07;99202.41;;;7.64;89.04
64644;BME280;51056;50.330;7.914;2022-11-23T07:24:11;99203.16;;;7.66;88.42
64644;BME280;51056;50.330;7.914;2022-11-23T07:27:16;99207.25;;;7.71;87.68
64644;BME280;51056;50.330;7.914;2022-11-23T07:30:21;99207.03;;;7.88;83.01
64644;BME280;51056;50.330;7.914;2022-11-23T07:33:25;99219.56;;;7.96;81.95
64644;BME280;51056;50.330;7.914;2022-11-23T07:36:28;99223.00;;;7.96;83.76
64644;BME280;51056;50.330;7.914;2022-11-23T07:39:32;99222.06;;;7.97;81.89
64644;BME280;51056;50.330;7.914;2022-11-23T07:42:35;99232.47;;;7.97;82.64
64644;BME280;51056;50.330;7.914;2022-11-23T07:45:41;99226.75;;;7.92;82.43
64644;BME280;51056;50.330;7.914;2022-11-23T07:48:51;99231.19;;;7.90;82.35
64644;BME280;51056;50.330;7.914;2022-11-23T07:51:56;99233.97;;;7.87;82.13
64644;BME280;51056;50.330;7.914;2022-11-23T07:54:59;99232.13;;;7.89;81.92
64644;BME280;51056;50.330;7.914;2022-11-23T07:58:03;99238.47;;;7.85;80.95
64644;BME280;51056;50.330;7.914;2022-11-23T08:01:14;99232.50;;;7.83;81.46
64644;BME280;51056;50.330;7.914;2022-11-23T08:04:20;99236.50;;;7.74;81.75
64644;BME280;51056;50.330;7.914;2022-11-23T08:07:23;99234.47;;;7.79;81.10
64644;BME280;51056;50.330;7.914;2022-11-23T08:10:31;99230.66;;;7.85;81.03
64644;BME280;51056;50.330;7.914;2022-11-23T08:13:35;99234.09;;;7.85;80.45
64644;BME280;51056;50.330;7.914;2022-11-23T08:16:41;99224.13;;;7.92;80.41
64644;BME280;51056;50.330;7.914;2022-11-23T08:19:48;99230.81;;;7.96;82.28
64644;BME280;51056;50.330;7.914;2022-11-23T08:22:52;99230.81;;;7.96;79.68
64644;BME280;51056;50.330;7.914;2022-11-23T08:26:03;99236.22;;;7.93;79.15
64644;BME280;51056;50.330;7.914;2022-11-23T08:29:06;99234.94;;;7.86;78.95
64644;BME280;51056;50.330;7.914;2022-11-23T08:32:10;99240.78;;;7.89;78.43
64644;BME280;51056;50.330;7.914;2022-11-23T08:35:14;99243.94;;;7.95;77.52
64644;BME280;51056;50.330;7.914;2022-11-23T08:38:17;99245.59;;;7.96;76.77
64644;BME280;51056;50.330;7.914;2022-11-23T08:41:21;99243.06;;;7.94;77.56
64644;BME280;51056;50.330;7.914;2022-11-23T08:44:24;99246.72;;;7.91;77.71
64644;BME280;51056;50.330;7.914;2022-11-23T08:47:27;99246.91;;;7.88;75.97
64644;BME280;51056;50.330;7.914;2022-11-23T08:50:34;99243.84;;;7.82;78.07
64644;BME280;51056;50.330;7.914;2022-11-23T08:53:37;99236.97;;;7.81;76.44
64644;BME280;51056;50.330;7.914;2022-11-23T08:56:41;99244.84;;;7.93;74.71
64644;BME280;51056;50.330;7.914;2022-11-23T08:59:45;99243.84;;;7.96;76.14
64644;BME280;51056;50.330;7.914;2022-11-23T09:02:48;99239.38;;;7.98;74.58
64644;BME280;51056;50.330;7.914;2022-11-23T09:05:51;99241.03;;;7.99;74.80
64644;BME280;51056;50.330;7.914;2022-11-23T09:08:56;99243.44;;;8.02;74.44
64644;BME280;51056;50.330;7.914;2022-11-23T09:12:00;99246.81;;;8.04;74.29
64644;BME280;51056;50.330;7.914;2022-11-23T09:15:06;99254.81;;;8.01;74.42
64644;BME280;51056;50.330;7.914;2022-11-23T09:18:12;99252.75;;;8.06;74.77
64644;BME280;51056;50.330;7.914;2022-11-23T09:21:16;99251.53;;;8.12;75.02
64644;BME280;51056;50.330;7.914;2022-11-23T09:24:20;99254.63;;;8.04;74.77
64644;BME280;51056;50.330;7.914;2022-11-23T09:27:24;99253.28;;;8.11;74.21
64644;BME280;51056;50.330;7.914;2022-11-23T09:30:27;99256.44;;;8.16;73.73
64644;BME280;51056;50.330;7.914;2022-11-23T09:33:31;99257.56;;;8.12;72.98
64644;BME280;51056;50.330;7.914;2022-11-23T09:36:34;99256.63;;;8.13;73.18
64644;BME280;51056;50.330;7.914;2022-11-23T09:39:38;99251.63;;;8.10;73.21
64644;BME280;51056;50.330;7.914;2022-11-23T09:42:55;99257.56;;;8.12;73.59
64644;BME280;51056;50.330;7.914;2022-11-23T09:52:46;99258.00;;;8.19;73.06
64644;BME280;51056;50.330;7.914;2022-11-23T09:55:52;99247.41;;;8.22;72.62
64644;BME280;51056;50.330;7.914;2022-11-23T09:59:04;99244.53;;;8.27;72.86
64644;BME280;51056;50.330;7.914;2022-11-23T10:02:20;99249.81;;;8.25;74.58
64644;BME280;51056;50.330;7.914;2022-11-23T10:05:31;99256.03;;;8.37;73.26
64644;BME280;51056;50.330;7.914;2022-11-23T10:12:37;99242.59;;;8.57;72.42
64644;BME280;51056;50.330;7.914;2022-11-23T10:20:11;99244.97;;;8.75;72.19
64644;BME280;51056;50.330;7.914;2022-11-23T10:26:39;99240.34;;;8.66;70.23
64644;BME280;51056;50.330;7.914;2022-11-23T10:29:45;99248.44;;;8.88;70.65
64644;BME280;51056;50.330;7.914;2022-11-23T10:36:10;99247.69;;;8.86;69.15
64644;BME280;51056;50.330;7.914;2022-11-23T10:39:21;99247.03;;;8.82;69.66
64644;BME280;51056;50.330;7.914;2022-11-23T10:43:13;99256.34;;;8.99;69.58
64644;BME280;51056;50.330;7.914;2022-11-23T10:46:39;99249.06;;;8.92;68.97
64644;BME280;51056;50.330;7.914;2022-11-23T10:49:56;99245.63;;;8.91;69.32
64644;BME280;51056;50.330;7.914;2022-11-23T10:53:18;99240.03;;;9.10;69.15
64644;BME280;51056;50.330;7.914;2022-11-23T10:56:26;99231.25;;;8.98;68.35
64644;BME280;51056;50.330;7.914;2022-11-23T10:59:36;99224.75;;;8.91;68.82
64644;BME280;51056;50.330;7.914;2022-11-23T11:02:41;99215.56;;;8.85;68.49
64644;BME280;51056;50.330;7.914;2022-11-23T11:05:49;99210.78;;;8.92;68.21
64644;BME280;51056;50.330;7.914;2022-11-23T11:08:54;99204.81;;;8.90;68.81
64644;BME280;51056;50.330;7.914;2022-11-23T11:12:01;99204.97;;;9.01;69.17
64644;BME280;51056;50.330;7.914;2022-11-23T11:18:17;99198.59;;;9.05;69.39
64644;BME280;51056;50.330;7.914;2022-11-23T11:21:33;99195.28;;;9.03;68.13
64644;BME280;51056;50.330;7.914;2022-11-23T11:24:44;99192.13;;;8.98;67.98
64644;BME280;51056;50.330;7.914;2022-11-23T11:27:56;99181.81;;;9.10;68.02
64644;BME280;51056;50.330;7.914;2022-11-23T11:31:15;99176.28;;;9.01;67.80
64644;BME280;51056;50.330;7.914;2022-11-23T11:34:29;99161.59;;;9.00;68.36
64644;BME280;51056;50.330;7.914;2022-11-23T11:38:02;99163.66;;;8.95;67.09
64644;BME280;51056;50.330;7.914;2022-11-23T11:41:09;99163.38;;;9.00;67.98
64644;BME280;51056;50.330;7.914;2022-11-23T11:44:19;99159.38;;;8.94;67.50
64644;BME280;51056;50.330;7.914;2022-11-23T11:47:32;99163.34;;;8.87;67.61
64644;BME280;51056;50.330;7.914;2022-11-23T11:51:15;99144.16;;;9.01;67.46
64644;BME280;51056;50.330;7.914;2022-11-23T11:57:45;99145.72;;;9.03;66.84
64644;BME280;51056;50.330;7.914;2022-11-23T12:01:24;99134.69;;;9.00;66.33
64644;BME280;51056;50.330;7.914;2022-11-23T12:04:26;99131.00;;;9.02;67.75
64644;BME280;51056;50.330;7.914;2022-11-23T12:11:05;99133.19;;;8.96;69.39
64644;BME280;51056;50.330;7.914;2022-11-23T12:14:12;99131.53;;;8.95;70.08
64644;BME280;51056;50.330;7.914;2022-11-23T12:31:08;99128.72;;;9.36;65.65
64644;BME280;51056;50.330;7.914;2022-11-23T12:50:59;99125.31;;;9.60;64.85
64644;BME280;51056;50.330;7.914;2022-11-23T12:54:34;99122.25;;;9.66;64.88
64644;BME280;51056;50.330;7.914;2022-11-23T12:57:59;99116.56;;;9.61;65.66
64644;BME280;51056;50.330;7.914;2022-11-23T13:01:29;99117.25;;;9.63;64.88
64644;BME280;51056;50.330;7.914;2022-11-23T13:12:26;99095.06;;;9.81;64.41
64644;BME280;51056;50.330;7.914;2022-11-23T13:19:24;99093.84;;;9.74;64.20
64644;BME280;51056;50.330;7.914;2022-11-23T13:26:27;99063.44;;;9.49;63.70
64644;BME280;51056;50.330;7.914;2022-11-23T13:29:55;99059.28;;;9.46;64.47
64644;BME280;51056;50.330;7.914;2022-11-23T13:33:24;99052.41;;;9.45;64.44
64644;BME280;51056;50.330;7.914;2022-11-23T13:42:58;99048.31;;;9.54;68.48
64644;BME280;51056;50.330;7.914;2022-11-23T13:46:24;99040.38;;;9.55;67.31
64644;BME280;51056;50.330;7.914;2022-11-23T13:52:48;99030.88;;;9.54;64.68
64644;BME280;51056;50.330;7.914;2022-11-23T13:55:55;99035.44;;;9.64;64.42
64644;BME280;51056;50.330;7.914;2022-11-23T13:59:24;99030.44;;;9.61;66.78
64644;BME280;51056;50.330;7.914;2022-11-23T14:02:29;99028.94;;;9.45;65.50
64644;BME280;51056;50.330;7.914;2022-11-23T14:13:10;99018.34;;;9.23;66.12
64644;BME280;51056;50.330;7.914;2022-11-23T14:16:30;99016.88;;;9.19;67.05
64644;BME280;51056;50.330;7.914;2022-11-23T14:30:32;99019.97;;;9.00;69.17
64644;BME280;51056;50.330;7.914;2022-11-23T14:40:20;99033.53;;;8.92;67.00
64644;BME280;51056;50.330;7.914;2022-11-23T14:43:28;99029.47;;;8.88;67.16
64644;BME280;51056;50.330;7.914;2022-11-23T14:46:31;99027.69;;;8.76;67.46
64644;BME280;51056;50.330;7.914;2022-11-23T14:49:35;99029.34;;;8.77;69.49
64644;BME280;51056;50.330;7.914;2022-11-23T14:52:39;99028.84;;;8.72;70.48
64644;BME280;51056;50.330;7.914;2022-11-23T14:55:46;99030.19;;;8.65;70.22
64644;BME280;51056;50.330;7.914;2022-11-23T14:58:49;99031.56;;;8.57;70.95
64644;BME280;51056;50.330;7.914;2022-11-23T15:02:03;99035.19;;;8.55;71.35
64644;BME280;51056;50.330;7.914;2022-11-23T15:05:20;99036.56;;;8.60;71.50
64644;BME280;51056;50.330;7.914;2022-11-23T15:08:29;99032.16;;;8.48;72.80
64644;BME280;51056;50.330;7.914;2022-11-23T15:11:37;99039.56;;;8.54;72.89
64644;BME280;51056;50.330;7.914;2022-11-23T15:14:42;99030.31;;;8.50;72.94
64644;BME280;51056;50.330;7.914;2022-11-23T15:17:51;99038.28;;;8.34;74.30
64644;BME280;51056;50.330;7.914;2022-11-23T15:21:18;99037.91;;;8.41;73.75
64644;BME280;51056;50.330;7.914;2022-11-23T15:24:27;99037.25;;;8.37;73.65
64644;BME280;51056;50.330;7.914;2022-11-23T15:27:38;99026.03;;;8.49;73.23
64644;BME280;51056;50.330;7.914;2022-11-23T15:30:45;99032.38;;;8.45;71.26
64644;BME280;51056;50.330;7.914;2022-11-23T15:33:50;99035.19;;;8.42;73.73
64644;BME280;51056;50.330;7.914;2022-11-23T15:37:02;99037.06;;;8.40;74.44
64644;BME280;51056;50.330;7.914;2022-11-23T15:40:06;99040.00;;;8.48;74.38
64644;BME280;51056;50.330;7.914;2022-11-23T15:43:17;99034.66;;;8.37;75.45
64644;BME280;51056;50.330;7.914;2022-11-23T15:46:27;99043.97;;;8.54;74.23
64644;BME280;51056;50.330;7.914;2022-11-23T15:49:39;99046.69;;;8.52;74.36
64644;BME280;51056;50.330;7.914;2022-11-23T15:52:49;99048.34;;;8.53;74.26
64644;BME280;51056;50.330;7.914;2022-11-23T15:55:54;99055.41;;;8.51;74.54
64644;BME280;51056;50.330;7.914;2022-11-23T15:59:03;99064.38;;;8.60;73.63
64644;BME280;51056;50.330;7.914;2022-11-23T16:02:24;99063.34;;;8.63;72.75
64644;BME280;51056;50.330;7.914;2022-11-23T16:05:27;99066.38;;;8.56;74.09
64644;BME280;51056;50.330;7.914;2022-11-23T16:08:38;99073.25;;;8.57;74.98
64644;BME280;51056;50.330;7.914;2022-11-23T16:11:44;99073.78;;;8.63;74.60
64644;BME280;51056;50.330;7.914;2022-11-23T16:18:45;99076.88;;;8.68;74.17
64644;BME280;51056;50.330;7.914;2022-11-23T16:21:54;99073.25;;;8.57;75.42
64644;BME280;51056;50.330;7.914;2022-11-23T16:28:33;99087.50;;;8.65;74.55
64644;BME280;51056;50.330;7.914;2022-11-23T16:31:51;99100.09;;;8.45;75.26
64644;BME280;51056;50.330;7.914;2022-11-23T16:35:13;99107.00;;;8.46;75.11
64644;BME280;51056;50.330;7.914;2022-11-23T16:38:19;99117.72;;;8.54;74.49
64644;BME280;51056;50.330;7.914;2022-11-23T16:41:26;99123.69;;;8.56;74.49
64644;BME280;51056;50.330;7.914;2022-11-23T16:44:32;99127.31;;;8.54;77.25
64644;BME280;51056;50.330;7.914;2022-11-23T16:47:53;99136.16;;;8.51;77.98
64644;BME280;51056;50.330;7.914;2022-11-23T16:50:57;99143.59;;;8.57;78.13
64644;BME280;51056;50.330;7.914;2022-11-23T16:54:01;99152.75;;;8.50;79.49
64644;BME280;51056;50.330;7.914;2022-11-23T16:57:04;99154.59;;;8.21;80.41
64644;BME280;51056;50.330;7.914;2022-11-23T17:00:15;99162.75;;;8.29;82.33
64644;BME280;51056;50.330;7.914;2022-11-23T17:03:19;99161.63;;;8.33;82.44
64644;BME280;51056;50.330;7.914;2022-11-23T17:06:22;99173.47;;;8.25;84.92
64644;BME280;51056;50.330;7.914;2022-11-23T17:09:25;99182.88;;;8.27;85.34
64644;BME280;51056;50.330;7.914;2022-11-23T17:12:29;99191.59;;;8.26;85.56
64644;BME280;51056;50.330;7.914;2022-11-23T17:15:32;99186.13;;;8.16;86.50
64644;BME280;51056;50.330;7.914;2022-11-23T17:18:36;99208.16;;;7.98;87.62
64644;BME280;51056;50.330;7.914;2022-11-23T17:21:40;99210.81;;;7.97;88.16
64644;BME280;51056;50.330;7.914;2022-11-23T17:24:43;99214.00;;;8.02;88.12
64644;BME280;51056;50.330;7.914;2022-11-23T17:27:46;99225.59;;;8.10;87.86
64644;BME280;51056;50.330;7.914;2022-11-23T17:30:50;99218.75;;;7.95;88.63
64644;BME280;51056;50.330;7.914;2022-11-23T17:33:54;99226.28;;;7.85;89.51
64644;BME280;51056;50.330;7.914;2022-11-23T17:36:58;99230.81;;;7.96;89.21
64644;BME280;51056;50.330;7.914;2022-11-23T17:40:12;99234.34;;;7.95;89.01
64644;BME280;51056;50.330;7.914;2022-11-23T17:43:18;99236.66;;;8.00;89.58
64644;BME280;51056;50.330;7.914;2022-11-23T17:46:25;99247.00;;;8.01;89.14
64644;BME280;51056;50.330;7.914;2022-11-23T17:49:44;99246.25;;;7.99;89.16
64644;BME280;51056;50.330;7.914;2022-11-23T17:52:54;99247.56;;;7.92;88.81
64644;BME280;51056;50.330;7.914;2022-11-23T17:56:02;99250.88;;;7.94;89.53
64644;BME280;51056;50.330;7.914;2022-11-23T17:59:06;99256.84;;;7.96;89.02
64644;BME280;51056;50.330;7.914;2022-11-23T18:02:13;99266.44;;;7.96;89.63
64644;BME280;51056;50.330;7.914;2022-11-23T18:05:17;99272.91;;;8.03;88.84
64644;BME280;51056;50.330;7.914;2022-11-23T18:08:24;99277.59;;;7.98;88.96
64644;BME280;51056;50.330;7.914;2022-11-23T18:11:34;99287.13;;;7.97;89.27
64644;BME280;51056;50.330;7.914;2022-11-23T18:18:38;99288.84;;;7.98;88.97
64644;BME280;51056;50.330;7.914;2022-11-23T18:21:42;99290.31;;;8.02;88.81
64644;BME280;51056;50.330;7.914;2022-11-23T18:24:45;99292.34;;;8.11;88.44
64644;BME280;51056;50.330;7.914;2022-11-23T18:27:49;99303.31;;;8.02;89.21
64644;BME280;51056;50.330;7.914;2022-11-23T18:30:58;99310.56;;;7.97;88.93
64644;BME280;51056;50.330;7.914;2022-11-23T18:34:01;99310.19;;;8.03;89.11
64644;BME280;51056;50.330;7.914;2022-11-23T18:37:12;99321.16;;;7.94;88.98
64644;BME280;51056;50.330;7.914;2022-11-23T18:40:17;99312.06;;;8.01;88.83
64644;BME280;51056;50.330;7.914;2022-11-23T18:43:20;99318.38;;;7.83;89.80
64644;BME280;51056;50.330;7.914;2022-11-23T18:46:29;99321.34;;;7.91;89.34
64644;BME280;51056;50.330;7.914;2022-11-23T18:49:54;99323.03;;;7.92;89.39
64644;BME280;51056;50.330;7.914;2022-11-23T18:52:59;99324.88;;;7.90;89.41